sensor_id;sensor_type;location;lat;lon;timestamp;temperature;humidity
23618;DHT22;18207;32.078;34.818;2023-08-01T00:00:52;32.70;47.70
23618;DHT22;18207;32.078;34.818;2023-08-01T00:03:22;32.70;47.70
23618;DHT22;18207;32.078;34.818;2023-08-01T00:05:52;32.70;47.80
23618;DHT22;18207;32.078;34.818;2023-08-01T00:08:22;32.70;47.90
23618;DHT22;18207;32.078;34.818;2023-08-01T00:10:55;32.70;47.80
23618;DHT22;18207;32.078;34.818;2023-08-01T00:13:25;32.70;47.90
23618;DHT22;18207;32.078;34.818;2023-08-01T00:15:56;32.70;48.00
23618;DHT22;18207;32.078;34.818;2023-08-01T00:18:28;32.70;48.00
23618;DHT22;18207;32.078;34.818;2023-08-01T00:20:59;32.70;48.10
23618;DHT22;18207;32.078;34.818;2023-08-01T00:23:28;32.70;48.10
23618;DHT22;18207;32.078;34.818;2023-08-01T00:26:00;32.70;48.20
23618;DHT22;18207;32.078;34.818;2023-08-01T00:28:31;32.70;48.20
23618;DHT22;18207;32.078;34.818;2023-08-01T00:31:03;32.70;48.20
23618;DHT22;18207;32.078;34.818;2023-08-01T00:33:34;32.70;48.20
23618;DHT22;18207;32.078;34.818;2023-08-01T00:36:05;32.60;48.10
23618;DHT22;18207;32.078;34.818;2023-08-01T00:38:37;32.60;48.10
23618;DHT22;18207;32.078;34.818;2023-08-01T00:41:10;32.60;48.10
23618;DHT22;18207;32.078;34.818;2023-08-01T00:43:41;32.60;48.20
23618;DHT22;18207;32.078;34.818;2023-08-01T00:46:11;32.60;48.30
23618;DHT22;18207;32.078;34.818;2023-08-01T00:48:41;32.60;48.30
23618;DHT22;18207;32.078;34.818;2023-08-01T00:51:12;32.60;48.30
23618;DHT22;18207;32.078;34.818;2023-08-01T00:53:43;32.60;48.30
23618;DHT22;18207;32.078;34.818;2023-08-01T00:56:16;32.60;48.40
23618;DHT22;18207;32.078;34.818;2023-08-01T00:58:47;32.60;48.50
23618;DHT22;18207;32.078;34.818;2023-08-01T01:01:18;32.60;48.50
23618;DHT22;18207;32.078;34.818;2023-08-01T01:03:48;32.50;48.50
23618;DHT22;18207;32.078;34.818;2023-08-01T01:06:22;32.50;48.50
23618;DHT22;18207;32.078;34.818;2023-08-01T01:08:56;32.50;48.50
23618;DHT22;18207;32.078;34.818;2023-08-01T01:11:28;32.50;48.60
23618;DHT22;18207;32.078;34.818;2023-08-01T01:13:58;32.50;48.60
23618;DHT22;18207;32.078;34.818;2023-08-01T01:16:28;32.50;48.60
23618;DHT22;18207;32.078;34.818;2023-08-01T01:18:58;32.50;48.60
23618;DHT22;18207;32.078;34.818;2023-08-01T01:21:32;32.40;48.60
23618;DHT22;18207;32.078;34.818;2023-08-01T01:24:05;32.50;48.60
23618;DHT22;18207;32.078;34.818;2023-08-01T01:26:40;32.50;48.60
23618;DHT22;18207;32.078;34.818;2023-08-01T01:29:12;32.40;48.60
23618;DHT22;18207;32.078;34.818;2023-08-01T01:31:44;32.40;48.60
23618;DHT22;18207;32.078;34.818;2023-08-01T01:34:15;32.40;48.70
23618;DHT22;18207;32.078;34.818;2023-08-01T01:36:47;32.30;48.60
23618;DHT22;18207;32.078;34.818;2023-08-01T01:39:17;32.30;48.60
23618;DHT22;18207;32.078;34.818;2023-08-01T01:41:48;32.40;48.70
23618;DHT22;18207;32.078;34.818;2023-08-01T01:44:18;32.30;48.70
23618;DHT22;18207;32.078;34.818;2023-08-01T01:46:49;32.40;48.70
23618;DHT22;18207;32.078;34.818;2023-08-01T01:49:19;32.30;48.70
23618;DHT22;18207;32.078;34.818;2023-08-01T01:51:51;32.30;48.70
23618;DHT22;18207;32.078;34.818;2023-08-01T01:54:24;32.30;48.70
23618;DHT22;18207;32.078;34.818;2023-08-01T01:56:54;32.30;48.70
23618;DHT22;18207;32.078;34.818;2023-08-01T01:59:24;32.30;48.70
23618;DHT22;18207;32.078;34.818;2023-08-01T02:01:55;32.30;48.80
23618;DHT22;18207;32.078;34.818;2023-08-01T02:04:25;32.30;48.80
23618;DHT22;18207;32.078;34.818;2023-08-01T02:06:58;32.30;48.80
23618;DHT22;18207;32.078;34.818;2023-08-01T02:09:27;32.30;48.80
23618;DHT22;18207;32.078;34.818;2023-08-01T02:11:57;32.30;48.80
23618;DHT22;18207;32.078;34.818;2023-08-01T02:14:27;32.30;48.80
23618;DHT22;18207;32.078;34.818;2023-08-01T02:16:57;32.30;48.80
23618;DHT22;18207;32.078;34.818;2023-08-01T02:19:27;32.30;48.90
23618;DHT22;18207;32.078;34.818;2023-08-01T02:21:59;32.30;48.90
23618;DHT22;18207;32.078;34.818;2023-08-01T02:24:29;32.20;48.90
23618;DHT22;18207;32.078;34.818;2023-08-01T02:27:00;32.20;48.90
23618;DHT22;18207;32.078;34.818;2023-08-01T02:29:30;32.20;48.90
23618;DHT22;18207;32.078;34.818;2023-08-01T02:32:01;32.20;48.90
23618;DHT22;18207;32.078;34.818;2023-08-01T02:34:32;32.20;48.90
23618;DHT22;18207;32.078;34.818;2023-08-01T02:37:05;32.20;49.00
23618;DHT22;18207;32.078;34.818;2023-08-01T02:39:35;32.20;49.00
23618;DHT22;18207;32.078;34.818;2023-08-01T02:42:08;32.20;49.00
23618;DHT22;18207;32.078;34.818;2023-08-01T02:44:39;32.20;49.10
23618;DHT22;18207;32.078;34.818;2023-08-01T02:47:09;32.10;49.00
23618;DHT22;18207;32.078;34.818;2023-08-01T02:49:39;32.20;49.10
23618;DHT22;18207;32.078;34.818;2023-08-01T02:52:11;32.20;49.10
23618;DHT22;18207;32.078;34.818;2023-08-01T02:55:11;32.20;49.10
23618;DHT22;18207;32.078;34.818;2023-08-01T02:57:44;32.10;49.10
23618;DHT22;18207;32.078;34.818;2023-08-01T03:00:14;32.10;49.00
23618;DHT22;18207;32.078;34.818;2023-08-01T03:02:46;32.10;49.10
23618;DHT22;18207;32.078;34.818;2023-08-01T03:05:17;32.10;49.20
23618;DHT22;18207;32.078;34.818;2023-08-01T03:07:49;32.10;49.20
23618;DHT22;18207;32.078;34.818;2023-08-01T03:10:19;32.10;49.20
23618;DHT22;18207;32.078;34.818;2023-08-01T03:12:56;32.10;49.20
23618;DHT22;18207;32.078;34.818;2023-08-01T03:15:27;32.10;49.20
23618;DHT22;18207;32.078;34.818;2023-08-01T03:17:57;32.10;49.20
23618;DHT22;18207;32.078;34.818;2023-08-01T03:20:28;32.10;49.20
23618;DHT22;18207;32.078;34.818;2023-08-01T03:23:00;32.10;49.20
23618;DHT22;18207;32.078;34.818;2023-08-01T03:25:30;32.10;49.20
23618;DHT22;18207;32.078;34.818;2023-08-01T03:28:00;32.10;49.20
23618;DHT22;18207;32.078;34.818;2023-08-01T03:30:31;32.10;49.20
23618;DHT22;18207;32.078;34.818;2023-08-01T03:33:03;32.10;49.20
23618;DHT22;18207;32.078;34.818;2023-08-01T03:35:33;32.10;49.20
23618;DHT22;18207;32.078;34.818;2023-08-01T03:38:05;32.10;49.20
23618;DHT22;18207;32.078;34.818;2023-08-01T03:40:37;32.10;49.20
23618;DHT22;18207;32.078;34.818;2023-08-01T03:43:08;32.10;49.20
23618;DHT22;18207;32.078;34.818;2023-08-01T03:45:39;32.10;49.20
23618;DHT22;18207;32.078;34.818;2023-08-01T03:48:09;32.20;49.30
23618;DHT22;18207;32.078;34.818;2023-08-01T03:50:39;32.20;49.30
23618;DHT22;18207;32.078;34.818;2023-08-01T03:53:11;32.20;49.30
23618;DHT22;18207;32.078;34.818;2023-08-01T03:55:43;32.10;49.20
23618;DHT22;18207;32.078;34.818;2023-08-01T03:58:13;32.20;49.20
23618;DHT22;18207;32.078;34.818;2023-08-01T04:00:43;32.20;49.30
23618;DHT22;18207;32.078;34.818;2023-08-01T04:03:14;32.20;49.20
23618;DHT22;18207;32.078;34.818;2023-08-01T04:05:44;32.10;49.10
23618;DHT22;18207;32.078;34.818;2023-08-01T04:08:16;32.10;49.20
23618;DHT22;18207;32.078;34.818;2023-08-01T04:10:46;32.10;49.20
23618;DHT22;18207;32.078;34.818;2023-08-01T04:13:17;32.10;49.20
23618;DHT22;18207;32.078;34.818;2023-08-01T04:15:48;32.20;49.30
23618;DHT22;18207;32.078;34.818;2023-08-01T04:18:18;32.10;49.30
23618;DHT22;18207;32.078;34.818;2023-08-01T04:20:48;32.10;49.30
23618;DHT22;18207;32.078;34.818;2023-08-01T04:23:21;32.10;49.30
23618;DHT22;18207;32.078;34.818;2023-08-01T04:25:51;32.20;49.50
23618;DHT22;18207;32.078;34.818;2023-08-01T04:28:21;32.10;49.40
23618;DHT22;18207;32.078;34.818;2023-08-01T04:30:52;32.20;49.50
23618;DHT22;18207;32.078;34.818;2023-08-01T04:33:22;32.10;49.50
23618;DHT22;18207;32.078;34.818;2023-08-01T04:35:52;32.20;49.60
23618;DHT22;18207;32.078;34.818;2023-08-01T04:38:24;32.20;49.60
23618;DHT22;18207;32.078;34.818;2023-08-01T04:40:54;32.20;49.70
23618;DHT22;18207;32.078;34.818;2023-08-01T04:43:25;32.20;49.70
23618;DHT22;18207;32.078;34.818;2023-08-01T04:45:55;32.30;49.70
23618;DHT22;18207;32.078;34.818;2023-08-01T04:48:25;32.30;49.70
23618;DHT22;18207;32.078;34.818;2023-08-01T04:50:55;32.30;49.70
23618;DHT22;18207;32.078;34.818;2023-08-01T04:53:27;32.30;49.60
23618;DHT22;18207;32.078;34.818;2023-08-01T04:55:57;32.40;49.70
23618;DHT22;18207;32.078;34.818;2023-08-01T04:58:27;32.40;49.70
23618;DHT22;18207;32.078;34.818;2023-08-01T05:00:58;32.40;49.80
23618;DHT22;18207;32.078;34.818;2023-08-01T05:03:28;32.50;49.80
23618;DHT22;18207;32.078;34.818;2023-08-01T05:05:59;32.50;49.80
23618;DHT22;18207;32.078;34.818;2023-08-01T05:08:30;32.50;50.40
23618;DHT22;18207;32.078;34.818;2023-08-01T05:11:00;32.50;49.80
23618;DHT22;18207;32.078;34.818;2023-08-01T05:13:30;32.50;49.80
23618;DHT22;18207;32.078;34.818;2023-08-01T05:16:01;32.60;49.90
23618;DHT22;18207;32.078;34.818;2023-08-01T05:18:32;32.60;49.90
23618;DHT22;18207;32.078;34.818;2023-08-01T05:21:02;32.70;50.00
23618;DHT22;18207;32.078;34.818;2023-08-01T05:23:34;32.70;49.90
23618;DHT22;18207;32.078;34.818;2023-08-01T05:26:05;32.80;49.90
23618;DHT22;18207;32.078;34.818;2023-08-01T05:28:35;32.80;49.90
23618;DHT22;18207;32.078;34.818;2023-08-01T05:31:05;32.80;49.90
23618;DHT22;18207;32.078;34.818;2023-08-01T05:33:36;32.80;49.80
23618;DHT22;18207;32.078;34.818;2023-08-01T05:36:05;32.80;49.80
23618;DHT22;18207;32.078;34.818;2023-08-01T05:38:37;32.90;49.80
23618;DHT22;18207;32.078;34.818;2023-08-01T05:41:08;32.90;49.80
23618;DHT22;18207;32.078;34.818;2023-08-01T05:43:38;33.00;49.80
23618;DHT22;18207;32.078;34.818;2023-08-01T05:46:07;33.00;49.70
23618;DHT22;18207;32.078;34.818;2023-08-01T05:48:38;33.00;49.70
23618;DHT22;18207;32.078;34.818;2023-08-01T05:51:07;33.00;49.70
23618;DHT22;18207;32.078;34.818;2023-08-01T05:53:41;33.10;49.70
23618;DHT22;18207;32.078;34.818;2023-08-01T05:56:12;33.10;49.70
23618;DHT22;18207;32.078;34.818;2023-08-01T05:58:43;33.10;49.50
23618;DHT22;18207;32.078;34.818;2023-08-01T06:01:17;33.20;49.60
23618;DHT22;18207;32.078;34.818;2023-08-01T06:03:47;33.30;49.60
23618;DHT22;18207;32.078;34.818;2023-08-01T06:06:18;33.30;49.50
23618;DHT22;18207;32.078;34.818;2023-08-01T06:08:50;33.40;49.50
23618;DHT22;18207;32.078;34.818;2023-08-01T06:11:21;33.40;49.40
23618;DHT22;18207;32.078;34.818;2023-08-01T06:13:51;33.50;49.30
23618;DHT22;18207;32.078;34.818;2023-08-01T06:16:22;33.50;49.30
23618;DHT22;18207;32.078;34.818;2023-08-01T06:18:54;33.60;49.30
23618;DHT22;18207;32.078;34.818;2023-08-01T06:21:24;33.60;49.70
23618;DHT22;18207;32.078;34.818;2023-08-01T06:23:56;33.70;49.10
23618;DHT22;18207;32.078;34.818;2023-08-01T06:26:28;33.70;48.90
23618;DHT22;18207;32.078;34.818;2023-08-01T06:28:58;33.80;48.90
23618;DHT22;18207;32.078;34.818;2023-08-01T06:31:29;33.80;48.90
23618;DHT22;18207;32.078;34.818;2023-08-01T06:33:59;33.80;48.70
23618;DHT22;18207;32.078;34.818;2023-08-01T06:36:29;33.90;48.70
23618;DHT22;18207;32.078;34.818;2023-08-01T06:39:02;33.90;48.60
23618;DHT22;18207;32.078;34.818;2023-08-01T06:41:33;34.00;48.50
23618;DHT22;18207;32.078;34.818;2023-08-01T06:44:03;34.00;48.40
23618;DHT22;18207;32.078;34.818;2023-08-01T06:46:34;34.00;48.10
23618;DHT22;18207;32.078;34.818;2023-08-01T06:49:04;34.10;48.20
23618;DHT22;18207;32.078;34.818;2023-08-01T06:51:34;34.10;48.10
23618;DHT22;18207;32.078;34.818;2023-08-01T06:54:07;34.10;48.20
23618;DHT22;18207;32.078;34.818;2023-08-01T06:56:38;34.20;48.20
23618;DHT22;18207;32.078;34.818;2023-08-01T06:59:08;34.30;48.10
23618;DHT22;18207;32.078;34.818;2023-08-01T07:01:38;34.30;48.00
23618;DHT22;18207;32.078;34.818;2023-08-01T07:04:10;34.40;48.10
23618;DHT22;18207;32.078;34.818;2023-08-01T07:06:41;34.40;47.90
23618;DHT22;18207;32.078;34.818;2023-08-01T07:09:12;34.50;47.70
23618;DHT22;18207;32.078;34.818;2023-08-01T07:11:42;34.50;47.70
23618;DHT22;18207;32.078;34.818;2023-08-01T07:14:12;34.60;47.80
23618;DHT22;18207;32.078;34.818;2023-08-01T07:16:42;34.60;47.90
23618;DHT22;18207;32.078;34.818;2023-08-01T07:19:13;34.70;47.80
23618;DHT22;18207;32.078;34.818;2023-08-01T07:21:43;34.80;47.90
23618;DHT22;18207;32.078;34.818;2023-08-01T07:24:17;34.80;47.90
23618;DHT22;18207;32.078;34.818;2023-08-01T07:26:48;34.80;47.70
23618;DHT22;18207;32.078;34.818;2023-08-01T07:29:18;34.90;47.50
23618;DHT22;18207;32.078;34.818;2023-08-01T07:31:48;34.90;47.40
23618;DHT22;18207;32.078;34.818;2023-08-01T07:34:18;35.00;47.40
23618;DHT22;18207;32.078;34.818;2023-08-01T07:36:49;35.00;47.10
23618;DHT22;18207;32.078;34.818;2023-08-01T07:39:21;35.10;47.20
23618;DHT22;18207;32.078;34.818;2023-08-01T07:41:51;35.10;47.30
23618;DHT22;18207;32.078;34.818;2023-08-01T07:44:22;35.10;47.20
23618;DHT22;18207;32.078;34.818;2023-08-01T07:46:52;35.10;47.20
23618;DHT22;18207;32.078;34.818;2023-08-01T07:49:22;35.20;47.10
23618;DHT22;18207;32.078;34.818;2023-08-01T07:51:53;35.20;46.90
23618;DHT22;18207;32.078;34.818;2023-08-01T07:54:26;35.20;46.90
23618;DHT22;18207;32.078;34.818;2023-08-01T07:56:56;35.20;46.80
23618;DHT22;18207;32.078;34.818;2023-08-01T07:59:26;35.30;46.80
23618;DHT22;18207;32.078;34.818;2023-08-01T08:01:56;35.30;46.80
23618;DHT22;18207;32.078;34.818;2023-08-01T08:04:27;35.40;46.90
23618;DHT22;18207;32.078;34.818;2023-08-01T08:06:57;35.40;46.90
23618;DHT22;18207;32.078;34.818;2023-08-01T08:09:30;35.40;46.50
23618;DHT22;18207;32.078;34.818;2023-08-01T08:12:00;35.40;46.20
23618;DHT22;18207;32.078;34.818;2023-08-01T08:14:31;35.50;46.30
23618;DHT22;18207;32.078;34.818;2023-08-01T08:17:01;35.50;46.40
23618;DHT22;18207;32.078;34.818;2023-08-01T08:19:32;35.50;46.50
23618;DHT22;18207;32.078;34.818;2023-08-01T08:22:02;35.50;46.50
23618;DHT22;18207;32.078;34.818;2023-08-01T08:24:34;35.60;46.60
23618;DHT22;18207;32.078;34.818;2023-08-01T08:27:05;35.60;46.50
23618;DHT22;18207;32.078;34.818;2023-08-01T08:29:36;35.70;46.50
23618;DHT22;18207;32.078;34.818;2023-08-01T08:32:07;35.70;46.50
23618;DHT22;18207;32.078;34.818;2023-08-01T08:34:38;35.70;46.40
23618;DHT22;18207;32.078;34.818;2023-08-01T08:37:08;35.80;46.50
23618;DHT22;18207;32.078;34.818;2023-08-01T08:39:41;35.70;46.30
23618;DHT22;18207;32.078;34.818;2023-08-01T08:42:11;35.80;46.30
23618;DHT22;18207;32.078;34.818;2023-08-01T08:44:43;35.80;46.20
23618;DHT22;18207;32.078;34.818;2023-08-01T08:47:17;35.80;46.10
23618;DHT22;18207;32.078;34.818;2023-08-01T08:49:49;35.90;46.10
23618;DHT22;18207;32.078;34.818;2023-08-01T08:52:20;35.90;46.70
23618;DHT22;18207;32.078;34.818;2023-08-01T08:54:52;35.90;46.00
23618;DHT22;18207;32.078;34.818;2023-08-01T08:57:24;35.90;45.80
23618;DHT22;18207;32.078;34.818;2023-08-01T08:59:56;35.90;45.70
23618;DHT22;18207;32.078;34.818;2023-08-01T09:02:28;35.90;45.50
23618;DHT22;18207;32.078;34.818;2023-08-01T09:04:59;35.90;45.60
23618;DHT22;18207;32.078;34.818;2023-08-01T09:07:30;35.90;45.60
23618;DHT22;18207;32.078;34.818;2023-08-01T09:10:09;35.90;45.50
23618;DHT22;18207;32.078;34.818;2023-08-01T09:12:41;35.90;45.40
23618;DHT22;18207;32.078;34.818;2023-08-01T09:15:12;35.90;45.30
23618;DHT22;18207;32.078;34.818;2023-08-01T09:17:51;35.90;45.50
23618;DHT22;18207;32.078;34.818;2023-08-01T09:20:24;35.90;45.50
23618;DHT22;18207;32.078;34.818;2023-08-01T09:22:55;35.90;45.50
23618;DHT22;18207;32.078;34.818;2023-08-01T09:25:33;36.00;45.60
23618;DHT22;18207;32.078;34.818;2023-08-01T09:28:04;36.00;45.40
23618;DHT22;18207;32.078;34.818;2023-08-01T09:30:48;35.90;45.50
23618;DHT22;18207;32.078;34.818;2023-08-01T09:33:19;36.00;45.40
23618;DHT22;18207;32.078;34.818;2023-08-01T09:35:50;36.00;45.50
23618;DHT22;18207;32.078;34.818;2023-08-01T09:38:21;36.00;45.50
23618;DHT22;18207;32.078;34.818;2023-08-01T09:40:55;36.00;45.40
23618;DHT22;18207;32.078;34.818;2023-08-01T09:43:25;36.00;45.40
23618;DHT22;18207;32.078;34.818;2023-08-01T09:46:05;36.00;45.40
23618;DHT22;18207;32.078;34.818;2023-08-01T09:48:36;36.10;45.20
23618;DHT22;18207;32.078;34.818;2023-08-01T09:51:08;36.10;45.70
23618;DHT22;18207;32.078;34.818;2023-08-01T09:53:47;36.10;45.00
23618;DHT22;18207;32.078;34.818;2023-08-01T09:56:24;36.10;44.90
23618;DHT22;18207;32.078;34.818;2023-08-01T09:58:55;36.10;44.90
23618;DHT22;18207;32.078;34.818;2023-08-01T10:01:31;36.10;44.90
23618;DHT22;18207;32.078;34.818;2023-08-01T10:04:03;36.10;44.90
23618;DHT22;18207;32.078;34.818;2023-08-01T10:06:38;36.10;44.90
23618;DHT22;18207;32.078;34.818;2023-08-01T10:09:12;36.10;44.90
23618;DHT22;18207;32.078;34.818;2023-08-01T10:11:47;36.00;44.80
23618;DHT22;18207;32.078;34.818;2023-08-01T10:14:20;36.00;44.90
23618;DHT22;18207;32.078;34.818;2023-08-01T10:16:50;36.00;44.80
23618;DHT22;18207;32.078;34.818;2023-08-01T10:19:22;36.00;44.80
23618;DHT22;18207;32.078;34.818;2023-08-01T10:21:52;36.00;44.80
23618;DHT22;18207;32.078;34.818;2023-08-01T10:24:25;36.00;44.50
23618;DHT22;18207;32.078;34.818;2023-08-01T10:27:11;36.00;44.40
23618;DHT22;18207;32.078;34.818;2023-08-01T10:29:42;36.00;44.50
23618;DHT22;18207;32.078;34.818;2023-08-01T10:32:14;36.00;44.80
23618;DHT22;18207;32.078;34.818;2023-08-01T10:34:51;36.00;44.80
23618;DHT22;18207;32.078;34.818;2023-08-01T10:37:21;36.00;44.80
23618;DHT22;18207;32.078;34.818;2023-08-01T10:39:59;36.10;44.80
23618;DHT22;18207;32.078;34.818;2023-08-01T10:42:40;36.00;44.40
23618;DHT22;18207;32.078;34.818;2023-08-01T10:45:20;36.00;44.40
23618;DHT22;18207;32.078;34.818;2023-08-01T10:48:06;36.00;44.30
23618;DHT22;18207;32.078;34.818;2023-08-01T10:50:38;36.00;44.40
23618;DHT22;18207;32.078;34.818;2023-08-01T10:53:13;36.00;44.40
23618;DHT22;18207;32.078;34.818;2023-08-01T10:55:45;36.00;44.40
23618;DHT22;18207;32.078;34.818;2023-08-01T10:58:18;36.00;44.50
23618;DHT22;18207;32.078;34.818;2023-08-01T11:00:57;36.00;44.40
23618;DHT22;18207;32.078;34.818;2023-08-01T11:03:34;36.00;44.50
23618;DHT22;18207;32.078;34.818;2023-08-01T11:06:05;36.00;44.30
23618;DHT22;18207;32.078;34.818;2023-08-01T11:08:36;36.00;44.40
23618;DHT22;18207;32.078;34.818;2023-08-01T11:11:11;36.00;44.60
23618;DHT22;18207;32.078;34.818;2023-08-01T11:13:52;36.00;44.40
23618;DHT22;18207;32.078;34.818;2023-08-01T11:16:24;36.00;44.40
23618;DHT22;18207;32.078;34.818;2023-08-01T11:18:55;36.00;44.40
23618;DHT22;18207;32.078;34.818;2023-08-01T11:21:28;36.00;44.40
23618;DHT22;18207;32.078;34.818;2023-08-01T11:23:58;36.00;44.40
23618;DHT22;18207;32.078;34.818;2023-08-01T11:26:29;36.00;44.40
23618;DHT22;18207;32.078;34.818;2023-08-01T11:29:03;36.00;44.40
23618;DHT22;18207;32.078;34.818;2023-08-01T11:31:33;36.00;44.40
23618;DHT22;18207;32.078;34.818;2023-08-01T11:34:03;36.00;44.40
23618;DHT22;18207;32.078;34.818;2023-08-01T11:36:35;35.90;45.10
23618;DHT22;18207;32.078;34.818;2023-08-01T11:39:07;35.90;44.50
23618;DHT22;18207;32.078;34.818;2023-08-01T11:41:37;35.90;44.50
23618;DHT22;18207;32.078;34.818;2023-08-01T11:44:10;35.90;44.50
23618;DHT22;18207;32.078;34.818;2023-08-01T11:46:40;35.90;44.60
23618;DHT22;18207;32.078;34.818;2023-08-01T11:49:14;35.90;44.60
23618;DHT22;18207;32.078;34.818;2023-08-01T11:51:44;35.90;44.70
23618;DHT22;18207;32.078;34.818;2023-08-01T11:54:15;35.80;44.50
23618;DHT22;18207;32.078;34.818;2023-08-01T11:56:46;35.80;44.40
23618;DHT22;18207;32.078;34.818;2023-08-01T11:59:18;35.80;44.50
23618;DHT22;18207;32.078;34.818;2023-08-01T12:01:48;35.80;44.40
23618;DHT22;18207;32.078;34.818;2023-08-01T12:04:25;35.80;44.40
23618;DHT22;18207;32.078;34.818;2023-08-01T12:06:55;35.80;44.40
23618;DHT22;18207;32.078;34.818;2023-08-01T12:09:26;35.80;44.50
23618;DHT22;18207;32.078;34.818;2023-08-01T12:12:00;35.70;44.40
23618;DHT22;18207;32.078;34.818;2023-08-01T12:14:33;35.70;44.40
23618;DHT22;18207;32.078;34.818;2023-08-01T12:17:04;35.70;44.40
23618;DHT22;18207;32.078;34.818;2023-08-01T12:19:34;35.70;44.30
23618;DHT22;18207;32.078;34.818;2023-08-01T12:22:04;35.70;44.30
23618;DHT22;18207;32.078;34.818;2023-08-01T12:24:35;35.70;44.40
23618;DHT22;18207;32.078;34.818;2023-08-01T12:27:06;35.70;44.20
23618;DHT22;18207;32.078;34.818;2023-08-01T12:29:39;35.70;44.30
23618;DHT22;18207;32.078;34.818;2023-08-01T12:32:09;35.70;44.50
23618;DHT22;18207;32.078;34.818;2023-08-01T12:34:40;35.70;44.50
23618;DHT22;18207;32.078;34.818;2023-08-01T12:37:10;35.70;44.40
23618;DHT22;18207;32.078;34.818;2023-08-01T12:39:40;35.70;44.60
23618;DHT22;18207;32.078;34.818;2023-08-01T12:42:10;35.70;44.40
23618;DHT22;18207;32.078;34.818;2023-08-01T12:44:42;35.70;44.20
23618;DHT22;18207;32.078;34.818;2023-08-01T12:47:12;35.60;44.10
23618;DHT22;18207;32.078;34.818;2023-08-01T12:49:43;35.70;44.40
23618;DHT22;18207;32.078;34.818;2023-08-01T12:52:22;35.60;44.30
23618;DHT22;18207;32.078;34.818;2023-08-01T12:54:53;35.60;44.20
23618;DHT22;18207;32.078;34.818;2023-08-01T12:57:23;35.60;44.20
23618;DHT22;18207;32.078;34.818;2023-08-01T12:59:59;35.60;44.20
23618;DHT22;18207;32.078;34.818;2023-08-01T13:02:30;35.60;44.10
23618;DHT22;18207;32.078;34.818;2023-08-01T13:05:01;35.60;44.10
23618;DHT22;18207;32.078;34.818;2023-08-01T13:07:31;35.50;44.10
23618;DHT22;18207;32.078;34.818;2023-08-01T13:10:03;35.50;44.10
23618;DHT22;18207;32.078;34.818;2023-08-01T13:12:33;35.50;44.20
23618;DHT22;18207;32.078;34.818;2023-08-01T13:15:08;35.60;44.10
23618;DHT22;18207;32.078;34.818;2023-08-01T13:17:44;35.60;44.70
23618;DHT22;18207;32.078;34.818;2023-08-01T13:20:14;35.50;44.20
23618;DHT22;18207;32.078;34.818;2023-08-01T13:22:46;35.50;44.20
23618;DHT22;18207;32.078;34.818;2023-08-01T13:25:18;35.50;44.20
23618;DHT22;18207;32.078;34.818;2023-08-01T13:27:49;35.40;44.10
23618;DHT22;18207;32.078;34.818;2023-08-01T13:30:21;35.40;44.10
23618;DHT22;18207;32.078;34.818;2023-08-01T13:32:52;35.40;44.10
23618;DHT22;18207;32.078;34.818;2023-08-01T13:35:22;35.40;44.10
23618;DHT22;18207;32.078;34.818;2023-08-01T13:37:53;35.40;44.10
23618;DHT22;18207;32.078;34.818;2023-08-01T13:40:25;35.30;44.00
23618;DHT22;18207;32.078;34.818;2023-08-01T13:42:55;35.30;44.50
23618;DHT22;18207;32.078;34.818;2023-08-01T13:45:30;35.30;43.80
23618;DHT22;18207;32.078;34.818;2023-08-01T13:48:00;35.20;43.90
23618;DHT22;18207;32.078;34.818;2023-08-01T13:50:30;35.20;43.70
23618;DHT22;18207;32.078;34.818;2023-08-01T13:53:00;35.20;43.80
23618;DHT22;18207;32.078;34.818;2023-08-01T13:55:32;35.20;43.70
23618;DHT22;18207;32.078;34.818;2023-08-01T13:58:03;35.20;43.90
23618;DHT22;18207;32.078;34.818;2023-08-01T14:00:35;35.10;44.00
23618;DHT22;18207;32.078;34.818;2023-08-01T14:03:05;35.10;44.20
23618;DHT22;18207;32.078;34.818;2023-08-01T14:05:36;35.10;44.20
23618;DHT22;18207;32.078;34.818;2023-08-01T14:08:06;35.10;44.20
23618;DHT22;18207;32.078;34.818;2023-08-01T14:10:36;35.10;44.20
23618;DHT22;18207;32.078;34.818;2023-08-01T14:13:07;35.10;44.30
23618;DHT22;18207;32.078;34.818;2023-08-01T14:15:39;35.10;44.30
23618;DHT22;18207;32.078;34.818;2023-08-01T14:18:09;35.00;44.20
23618;DHT22;18207;32.078;34.818;2023-08-01T14:20:40;35.00;44.30
23618;DHT22;18207;32.078;34.818;2023-08-01T14:23:10;35.00;44.30
23618;DHT22;18207;32.078;34.818;2023-08-01T14:25:41;35.00;44.30
23618;DHT22;18207;32.078;34.818;2023-08-01T14:28:11;35.00;44.30
23618;DHT22;18207;32.078;34.818;2023-08-01T14:30:43;34.90;44.20
23618;DHT22;18207;32.078;34.818;2023-08-01T14:33:14;35.00;44.30
23618;DHT22;18207;32.078;34.818;2023-08-01T14:35:44;34.90;44.30
23618;DHT22;18207;32.078;34.818;2023-08-01T14:38:14;34.90;44.30
23618;DHT22;18207;32.078;34.818;2023-08-01T14:40:44;34.90;44.20
23618;DHT22;18207;32.078;34.818;2023-08-01T14:43:35;34.90;44.30
23618;DHT22;18207;32.078;34.818;2023-08-01T14:46:07;34.90;44.30
23618;DHT22;18207;32.078;34.818;2023-08-01T14:48:37;34.80;44.30
23618;DHT22;18207;32.078;34.818;2023-08-01T14:51:08;34.80;44.30
23618;DHT22;18207;32.078;34.818;2023-08-01T14:53:38;34.80;44.50
23618;DHT22;18207;32.078;34.818;2023-08-01T14:56:08;34.80;44.50
23618;DHT22;18207;32.078;34.818;2023-08-01T14:58:39;34.80;44.50
23618;DHT22;18207;32.078;34.818;2023-08-01T15:01:15;34.80;44.50
23618;DHT22;18207;32.078;34.818;2023-08-01T15:03:46;34.80;45.30
23618;DHT22;18207;32.078;34.818;2023-08-01T15:06:16;34.80;44.50
23618;DHT22;18207;32.078;34.818;2023-08-01T15:08:47;34.80;44.70
23618;DHT22;18207;32.078;34.818;2023-08-01T15:11:18;34.80;44.80
23618;DHT22;18207;32.078;34.818;2023-08-01T15:13:48;34.70;44.80
23618;DHT22;18207;32.078;34.818;2023-08-01T15:16:21;34.70;44.80
23618;DHT22;18207;32.078;34.818;2023-08-01T15:18:51;34.70;44.80
23618;DHT22;18207;32.078;34.818;2023-08-01T15:21:21;34.70;44.90
23618;DHT22;18207;32.078;34.818;2023-08-01T15:23:53;34.70;44.90
23618;DHT22;18207;32.078;34.818;2023-08-01T15:26:23;34.60;44.80
23618;DHT22;18207;32.078;34.818;2023-08-01T15:28:53;34.70;44.80
23618;DHT22;18207;32.078;34.818;2023-08-01T15:31:25;34.60;44.80
23618;DHT22;18207;32.078;34.818;2023-08-01T15:33:55;34.60;44.90
23618;DHT22;18207;32.078;34.818;2023-08-01T15:36:27;34.60;44.90
23618;DHT22;18207;32.078;34.818;2023-08-01T15:38:57;34.60;45.00
23618;DHT22;18207;32.078;34.818;2023-08-01T15:41:27;34.60;45.10